createdAt,value
2023-08-08T00:02:43.946Z,99377.06
2023-08-08T00:07:46.760Z,99388.88
2023-08-08T00:12:49.272Z,99376.94
2023-08-08T00:17:51.986Z,99385.81
2023-08-08T00:22:54.368Z,99380.97
2023-08-08T00:27:56.740Z,99402.38
2023-08-08T00:32:59.418Z,99404.34
2023-08-08T00:38:02.132Z,99410.47
2023-08-08T00:43:04.778Z,99410.28
2023-08-08T00:48:07.506Z,99405.78
2023-08-08T00:53:09.928Z,99409.47
2023-08-08T00:58:12.588Z,99415.44
2023-08-08T01:03:15.155Z,99421.38
2023-08-08T01:08:20.908Z,99391.41
2023-08-08T01:13:24.871Z,99433.09
2023-08-08T01:18:28.346Z,99430.84
2023-08-08T01:23:55.482Z,99440.00
2023-08-08T01:28:57.895Z,99448.13
2023-08-08T01:34:00.380Z,99439.91
2023-08-08T01:39:06.597Z,99430.91
2023-08-08T01:44:09.184Z,99441.03
2023-08-08T01:49:11.564Z,99450.66
2023-08-08T01:54:14.017Z,99443.66
2023-08-08T01:59:16.440Z,99451.50
2023-08-08T02:04:19.401Z,99461.47
2023-08-08T02:09:22.145Z,99459.34
2023-08-08T02:14:24.658Z,99463.06
2023-08-08T02:19:27.229Z,99452.56
2023-08-08T02:24:30.003Z,99464.06
2023-08-08T02:29:32.621Z,99448.22
2023-08-08T02:34:35.986Z,99473.97
2023-08-08T02:39:38.344Z,99476.63
2023-08-08T02:44:40.662Z,99485.47
2023-08-08T02:49:42.999Z,99495.63
2023-08-08T02:54:45.628Z,99486.97
2023-08-08T02:59:48.155Z,99507.22
2023-08-08T03:04:50.882Z,99487.94
2023-08-08T03:09:53.328Z,99505.81
2023-08-08T03:14:56.008Z,99508.78
2023-08-08T03:20:00.290Z,99518.72
2023-08-08T03:25:04.196Z,99514.84
2023-08-08T03:30:07.951Z,99506.28
2023-08-08T03:35:16.345Z,99519.94
2023-08-08T03:40:20.289Z,99521.03
2023-08-08T03:45:22.961Z,99510.31
2023-08-08T03:50:25.412Z,99529.94
2023-08-08T03:55:27.774Z,99535.75
2023-08-08T04:00:30.718Z,99543.00
2023-08-08T04:05:33.152Z,99547.88
2023-08-08T04:10:35.661Z,99552.16
2023-08-08T04:15:38.054Z,99553.53
2023-08-08T04:20:40.494Z,99555.38
2023-08-08T04:25:42.774Z,99572.69
2023-08-08T04:30:45.129Z,99577.00
2023-08-08T04:35:48.713Z,99581.84
2023-08-08T04:40:51.150Z,99593.66
2023-08-08T04:45:53.572Z,99604.72
2023-08-08T04:50:55.891Z,99596.25
2023-08-08T04:55:58.302Z,99603.75
2023-08-08T05:01:00.800Z,99618.03
2023-08-08T05:06:04.210Z,99619.63
2023-08-08T05:11:06.641Z,99620.84
2023-08-08T05:16:09.110Z,99634.47
2023-08-08T05:21:11.703Z,99634.72
2023-08-08T05:26:14.156Z,99629.06
2023-08-08T05:31:16.667Z,99638.91
2023-08-08T05:36:19.143Z,99640.25
2023-08-08T05:41:21.529Z,99640.13
2023-08-08T05:46:23.942Z,99642.09
2023-08-08T05:51:26.312Z,99635.88
2023-08-08T05:56:38.778Z,99649.41
2023-08-08T06:01:41.224Z,99634.00
2023-08-08T06:06:43.575Z,99650.88
2023-08-08T06:11:46.078Z,99648.19
2023-08-08T06:16:48.646Z,99645.56
2023-08-08T06:21:51.507Z,99659.97
2023-08-08T06:26:54.235Z,99654.84
2023-08-08T06:31:56.678Z,99657.44
2023-08-08T06:36:59.365Z,99670.34
2023-08-08T06:42:02.000Z,99644.59
2023-08-08T06:47:15.599Z,99674.03
2023-08-08T06:52:17.974Z,99690.16
2023-08-08T06:57:20.562Z,99694.16
2023-08-08T07:02:23.072Z,99689.53
2023-08-08T07:07:26.134Z,99706.97
2023-08-08T07:12:28.652Z,99706.53
2023-08-08T07:17:31.169Z,99695.69
2023-08-08T07:22:34.347Z,99715.28
2023-08-08T07:27:36.866Z,99710.75
2023-08-08T07:32:39.293Z,99696.47
2023-08-08T07:37:41.705Z,99714.50
2023-08-08T07:42:44.214Z,99722.72
2023-08-08T07:47:46.882Z,99718.84
2023-08-08T07:52:49.432Z,99718.50
2023-08-08T07:57:51.863Z,99720.66
2023-08-08T08:02:54.610Z,99723.50
2023-08-08T08:07:57.088Z,99733.66
2023-08-08T08:12:59.618Z,99741.84
2023-08-08T08:18:02.213Z,99749.91
2023-08-08T08:23:04.792Z,99734.25
2023-08-08T08:28:07.361Z,99738.47
2023-08-08T08:33:09.980Z,99750.53
2023-08-08T08:38:12.588Z,99762.66
2023-08-08T08:43:15.219Z,99760.28
2023-08-08T08:48:20.020Z,99762.22
2023-08-08T08:53:23.736Z,99760.53
2023-08-08T08:58:27.168Z,99774.72
2023-08-08T09:03:29.676Z,99772.81
2023-08-08T09:08:32.103Z,99767.69
2023-08-08T09:13:41.291Z,99778.38
2023-08-08T09:18:43.922Z,99773.56
2023-08-08T09:23:46.628Z,99774.94
2023-08-08T09:28:49.051Z,99783.97
2023-08-08T09:33:52.644Z,99781.19
2023-08-08T09:38:55.727Z,99776.19
2023-08-08T09:43:58.145Z,99780.03
2023-08-08T09:49:00.692Z,99763.75
2023-08-08T09:54:03.617Z,99776.44
2023-08-08T09:59:07.300Z,99798.66
2023-08-08T10:04:10.059Z,99793.19
2023-08-08T10:09:13.169Z,99804.44
2023-08-08T10:14:16.799Z,99794.50
2023-08-08T10:19:23.675Z,99815.47
2023-08-08T10:24:26.061Z,99809.22
2023-08-08T10:29:29.966Z,99808.25
2023-08-08T10:34:46.205Z,99826.69
2023-08-08T10:39:55.080Z,99813.72
2023-08-08T10:44:59.616Z,99816.97
2023-08-08T10:50:15.955Z,99832.69
2023-08-08T10:55:22.305Z,99829.28
2023-08-08T11:00:30.869Z,99830.19
2023-08-08T11:05:38.507Z,99815.13
2023-08-08T11:10:43.154Z,99819.91
2023-08-08T11:15:45.701Z,99826.22
2023-08-08T11:20:48.623Z,99833.56
2023-08-08T11:26:17.395Z,99857.72
2023-08-08T11:31:14.962Z,99830.03
2023-08-08T11:36:17.628Z,99840.78
2023-08-08T11:41:24.546Z,99827.09
2023-08-08T11:46:27.494Z,99842.31
2023-08-08T11:51:30.195Z,99852.03
2023-08-08T11:56:35.720Z,99838.22
2023-08-08T12:01:39.900Z,99835.91
2023-08-08T12:06:45.431Z,99845.97
2023-08-08T12:11:48.190Z,99857.31
2023-08-08T12:16:50.915Z,99858.34
2023-08-08T12:21:53.660Z,99868.66
2023-08-08T12:26:57.876Z,99907.34
2023-08-08T12:32:00.561Z,99922.41
2023-08-08T12:37:04.121Z,99905.81
2023-08-08T12:42:07.192Z,99924.53
2023-08-08T12:47:13.149Z,99902.75
2023-08-08T12:52:17.429Z,99892.59
2023-08-08T12:57:20.066Z,99907.97
2023-08-08T13:02:22.455Z,99912.38
2023-08-08T13:07:25.252Z,99912.53
2023-08-08T13:12:27.747Z,99907.31
2023-08-08T13:17:30.684Z,99907.53
2023-08-08T13:22:33.193Z,99897.00
2023-08-08T13:27:36.591Z,99896.94
2023-08-08T13:32:39.783Z,99891.81
2023-08-08T13:37:42.480Z,99881.06
2023-08-08T13:42:48.942Z,99890.44
2023-08-08T13:47:51.584Z,99886.88
2023-08-08T13:52:54.482Z,99875.72
2023-08-08T13:57:56.868Z,99880.84
2023-08-08T14:03:00.188Z,99863.19
2023-08-08T14:08:02.844Z,99885.59
2023-08-08T14:13:06.821Z,99887.63
2023-08-08T14:18:09.489Z,99890.44
2023-08-08T14:23:12.746Z,99901.09
2023-08-08T14:28:15.406Z,99882.13
2023-08-08T14:33:18.505Z,99900.31
2023-08-08T14:38:25.657Z,99902.19
2023-08-08T14:43:28.099Z,99908.69
2023-08-08T14:48:30.693Z,99907.00
2023-08-08T14:53:34.977Z,99912.84
2023-08-08T14:58:37.358Z,99910.81
2023-08-08T15:03:42.481Z,99920.06
2023-08-08T15:08:45.118Z,99918.69
2023-08-08T15:13:47.604Z,99915.78
2023-08-08T15:18:50.004Z,99922.38
2023-08-08T15:23:52.602Z,99922.09
2023-08-08T15:28:54.958Z,99923.16
2023-08-08T15:33:57.424Z,99924.22
2023-08-08T15:38:59.915Z,99940.69
2023-08-08T15:44:02.243Z,99941.47
2023-08-08T15:49:07.950Z,99955.50
2023-08-08T15:54:10.372Z,99957.56
2023-08-08T15:59:12.800Z,99968.84
2023-08-08T16:04:16.349Z,99955.97
2023-08-08T16:09:18.636Z,99951.09
2023-08-08T16:14:21.310Z,99950.84
2023-08-08T16:19:23.785Z,99954.81
2023-08-08T16:24:26.535Z,99940.81
2023-08-08T16:29:29.082Z,99955.72
2023-08-08T16:34:32.419Z,99953.72
2023-08-08T16:39:34.873Z,99960.50
2023-08-08T16:44:37.637Z,99965.75
2023-08-08T16:49:40.939Z,99980.97
2023-08-08T16:54:43.649Z,99987.63
2023-08-08T16:59:46.322Z,99993.69
2023-08-08T17:04:50.410Z,100004.13
2023-08-08T17:09:52.762Z,100006.94
2023-08-08T17:14:55.924Z,100003.66
2023-08-08T17:19:58.436Z,99997.53
2023-08-08T17:25:00.990Z,99990.34
2023-08-08T17:30:05.014Z,99987.72
2023-08-08T17:35:08.275Z,99978.06
2023-08-08T17:40:10.875Z,99993.84
2023-08-08T17:45:14.221Z,99991.22
2023-08-08T17:50:16.701Z,99997.53
2023-08-08T17:55:19.780Z,100011.88
2023-08-08T18:00:22.997Z,100045.63
2023-08-08T18:05:25.748Z,100043.56
2023-08-08T18:10:28.519Z,100041.84
2023-08-08T18:15:31.076Z,100071.19
2023-08-08T18:20:34.327Z,100054.16
2023-08-08T18:25:36.883Z,100046.31
2023-08-08T18:30:39.669Z,100056.13
2023-08-08T18:35:42.656Z,100062.09
2023-08-08T18:40:45.305Z,100055.78
2023-08-08T18:45:50.748Z,100043.88
2023-08-08T18:50:53.739Z,100045.56
2023-08-08T18:55:56.355Z,100037.69
2023-08-08T19:01:00.898Z,100031.50
2023-08-08T19:06:07.320Z,100029.84
2023-08-08T19:11:12.140Z,100046.31
2023-08-08T19:16:15.034Z,100039.94
2023-08-08T19:21:19.206Z,100041.34
2023-08-08T19:26:27.233Z,100039.19
2023-08-08T19:31:30.858Z,100036.50
2023-08-08T19:36:34.042Z,100037.06
2023-08-08T19:41:36.767Z,100037.78
2023-08-08T19:46:39.372Z,100036.00
2023-08-08T19:51:41.699Z,100027.28
2023-08-08T19:56:44.536Z,100037.09
2023-08-08T20:01:47.256Z,100028.00
2023-08-08T20:06:56.854Z,100027.28
2023-08-08T20:12:00.704Z,100025.25
2023-08-08T20:17:04.159Z,100023.13
2023-08-08T20:22:11.984Z,100026.78
2023-08-08T20:27:14.971Z,100035.16
2023-08-08T20:32:17.467Z,100032.97
2023-08-08T20:37:20.725Z,100030.22
2023-08-08T20:42:23.805Z,100034.81
2023-08-08T20:47:26.906Z,100029.75
2023-08-08T20:52:29.479Z,100027.19
2023-08-08T20:57:34.866Z,100023.25
2023-08-08T21:02:38.176Z,100005.38
2023-08-08T21:07:40.944Z,100033.06
2023-08-08T21:12:43.689Z,100024.38
2023-08-08T21:17:47.221Z,100024.81
2023-08-08T21:22:49.987Z,100036.25
2023-08-08T21:27:52.825Z,100040.28
2023-08-08T21:32:55.313Z,100047.34
2023-08-08T21:37:57.702Z,100052.28
2023-08-08T21:43:00.489Z,100055.41
2023-08-08T21:48:16.349Z,100052.06
2023-08-08T21:53:38.074Z,100059.94
2023-08-08T21:58:40.621Z,100050.53
2023-08-08T22:03:45.472Z,100060.66
2023-08-08T22:08:48.669Z,100067.06
2023-08-08T22:13:54.635Z,100067.88
2023-08-08T22:18:57.339Z,100057.34
2023-08-08T22:24:00.869Z,100077.31
2023-08-08T22:29:10.570Z,100077.03
2023-08-08T22:34:13.476Z,100073.06
2023-08-08T22:39:19.291Z,100070.13
2023-08-08T22:44:22.085Z,100075.91
2023-08-08T22:49:32.618Z,100067.75
2023-08-08T22:54:34.972Z,100078.34
2023-08-08T22:59:37.968Z,100093.84
2023-08-08T23:04:40.944Z,100097.09
2023-08-08T23:09:43.843Z,100077.22
2023-08-08T23:14:46.507Z,100100.84
2023-08-08T23:19:49.055Z,100085.44
2023-08-08T23:24:53.128Z,100083.81
2023-08-08T23:29:56.018Z,100086.31
2023-08-08T23:35:03.639Z,100088.97
2023-08-08T23:40:11.748Z,100090.50
2023-08-08T23:45:16.269Z,100086.56
2023-08-08T23:50:18.872Z,100089.28
2023-08-08T23:55:21.700Z,100074.28
